CGGZ CYXU-CYTZ
Flight info
| Callsign | CGGZ |
|---|---|
| Flight time | 0h 34m |
| Altitude | 3000 |
| Route | CYXU/09 VFR |
| Aircraft | BE35 |
Departure
| Time | 2026-04-25 01:07 |
|---|---|
| Airport | London International Airport (CYXU) |
Arrival
| Time | 2026-04-25 01:42 |
|---|---|
| Airport | Billy Bishop Toronto City Airport (CYTZ) |
| Time | Latitude | Longitude | Altitude | Speed | Heading |
|---|---|---|---|---|---|
| 2026-04-25 01:01 | 43.03294 | -81.15709 | 903 ft | 0 kts | 224° |
| 2026-04-25 01:02 | 43.03274 | -81.15701 | 903 ft | 17 kts | 142° |
| 2026-04-25 01:02 | 43.03248 | -81.15631 | 903 ft | 9 kts | 55° |
| 2026-04-25 01:03 | 43.03302 | -81.15554 | 903 ft | 13 kts | 45° |
| 2026-04-25 01:03 | 43.03332 | -81.15446 | 903 ft | 12 kts | 38° |
| 2026-04-25 01:03 | 43.03427 | -81.15421 | 903 ft | 15 kts | 339° |
| 2026-04-25 01:03 | 43.03517 | -81.15489 | 903 ft | 15 kts | 320° |
| 2026-04-25 01:04 | 43.03600 | -81.15583 | 903 ft | 16 kts | 315° |
| 2026-04-25 01:04 | 43.03676 | -81.15699 | 903 ft | 17 kts | 296° |
| 2026-04-25 01:04 | 43.03690 | -81.15829 | 903 ft | 14 kts | 264° |
| 2026-04-25 01:04 | 43.03667 | -81.15962 | 903 ft | 15 kts | 256° |
| 2026-04-25 01:05 | 43.03649 | -81.16109 | 903 ft | 16 kts | 261° |
| 2026-04-25 01:05 | 43.03637 | -81.16224 | 903 ft | 10 kts | 291° |
| 2026-04-25 01:05 | 43.03689 | -81.16272 | 903 ft | 8 kts | 343° |
| 2026-04-25 01:05 | 43.03721 | -81.16285 | 903 ft | 1 kts | 343° |
| 2026-04-25 01:06 | 43.03723 | -81.16286 | 903 ft | 0 kts | 343° |
| 2026-04-25 01:06 | 43.03764 | -81.16284 | 903 ft | 22 kts | 18° |
| 2026-04-25 01:06 | 43.03855 | -81.15935 | 901 ft | 72 kts | 78° |
| 2026-04-25 01:07 | 43.03979 | -81.15105 | 1067 ft | 94 kts | 79° |
| 2026-04-25 01:07 | 43.04144 | -81.14139 | 1301 ft | 118 kts | 80° |
| 2026-04-25 01:07 | 43.04318 | -81.12976 | 1556 ft | 129 kts | 82° |
| 2026-04-25 01:07 | 43.04428 | -81.11712 | 1761 ft | 139 kts | 86° |
| 2026-04-25 01:08 | 43.04513 | -81.10352 | 1872 ft | 150 kts | 88° |
| 2026-04-25 01:08 | 43.04597 | -81.08893 | 1898 ft | 158 kts | 91° |
| 2026-04-25 01:08 | 43.04570 | -81.07375 | 2013 ft | 158 kts | 92° |
| 2026-04-25 01:08 | 43.04675 | -81.05853 | 2088 ft | 167 kts | 86° |
| 2026-04-25 01:09 | 43.04781 | -81.04260 | 2139 ft | 167 kts | 99° |
| 2026-04-25 01:09 | 43.04677 | -81.02685 | 2286 ft | 166 kts | 98° |
| 2026-04-25 01:09 | 43.04486 | -81.01122 | 2330 ft | 169 kts | 107° |
| 2026-04-25 01:09 | 43.04105 | -80.99605 | 2385 ft | 169 kts | 121° |
| 2026-04-25 01:10 | 43.03599 | -80.98160 | 2489 ft | 172 kts | 110° |
| 2026-04-25 01:10 | 43.03467 | -80.96479 | 2482 ft | 182 kts | 89° |
| 2026-04-25 01:10 | 43.03622 | -80.94792 | 2703 ft | 177 kts | 84° |
| 2026-04-25 01:10 | 43.03960 | -80.93156 | 2813 ft | 183 kts | 69° |
| 2026-04-25 01:11 | 43.04594 | -80.91589 | 2805 ft | 193 kts | 59° |
| 2026-04-25 01:11 | 43.05229 | -80.90009 | 2984 ft | 187 kts | 64° |
| 2026-04-25 01:11 | 43.05810 | -80.88391 | 3055 ft | 193 kts | 63° |
| 2026-04-25 01:11 | 43.06439 | -80.86761 | 3111 ft | 196 kts | 62° |
| 2026-04-25 01:12 | 43.07175 | -80.85142 | 2922 ft | 207 kts | 44° |
| 2026-04-25 01:12 | 43.08356 | -80.83899 | 2392 ft | 219 kts | 39° |
| 2026-04-25 01:12 | 43.09530 | -80.82721 | 2316 ft | 197 kts | 42° |
| 2026-04-25 01:12 | 43.10550 | -80.81608 | 2491 ft | 179 kts | 43° |
| 2026-04-25 01:13 | 43.11505 | -80.80494 | 2347 ft | 185 kts | 50° |
| 2026-04-25 01:13 | 43.12377 | -80.79212 | 2146 ft | 186 kts | 52° |
| 2026-04-25 01:13 | 43.13138 | -80.77749 | 1834 ft | 181 kts | 59° |
| 2026-04-25 01:13 | 43.13733 | -80.76403 | 2268 ft | 148 kts | 68° |
| 2026-04-25 01:14 | 43.14100 | -80.75048 | 2273 ft | 156 kts | 73° |
| 2026-04-25 01:14 | 43.14396 | -80.73598 | 2183 ft | 163 kts | 83° |
| 2026-04-25 01:14 | 43.14558 | -80.72136 | 2428 ft | 150 kts | 86° |
| 2026-04-25 01:14 | 43.14680 | -80.70677 | 2393 ft | 161 kts | 92° |
| 2026-04-25 01:15 | 43.14651 | -80.69114 | 2346 ft | 162 kts | 95° |
| 2026-04-25 01:15 | 43.14710 | -80.67592 | 2456 ft | 160 kts | 88° |
| 2026-04-25 01:15 | 43.14886 | -80.66087 | 2568 ft | 159 kts | 83° |
| 2026-04-25 01:15 | 43.15045 | -80.64593 | 2637 ft | 160 kts | 86° |
| 2026-04-25 01:16 | 43.15183 | -80.63074 | 2682 ft | 165 kts | 86° |
| 2026-04-25 01:16 | 43.15267 | -80.61513 | 2820 ft | 161 kts | 96° |
| 2026-04-25 01:16 | 43.15101 | -80.59934 | 2678 ft | 175 kts | 105° |
| 2026-04-25 01:16 | 43.14809 | -80.58359 | 2764 ft | 167 kts | 102° |
| 2026-04-25 01:17 | 43.14665 | -80.56762 | 2733 ft | 172 kts | 101° |
| 2026-04-25 01:17 | 43.14453 | -80.55153 | 2823 ft | 170 kts | 108° |
| 2026-04-25 01:17 | 43.14096 | -80.53615 | 2879 ft | 172 kts | 111° |
| 2026-04-25 01:17 | 43.13754 | -80.52012 | 2956 ft | 175 kts | 110° |
| 2026-04-25 01:18 | 43.13312 | -80.50450 | 2997 ft | 179 kts | 116° |
| 2026-04-25 01:18 | 43.12934 | -80.48791 | 2802 ft | 192 kts | 103° |
| 2026-04-25 01:18 | 43.12767 | -80.47050 | 2929 ft | 174 kts | 95° |
| 2026-04-25 01:18 | 43.12838 | -80.45389 | 2939 ft | 181 kts | 83° |
| 2026-04-25 01:19 | 43.13079 | -80.43701 | 2986 ft | 178 kts | 83° |
| 2026-04-25 01:19 | 43.13136 | -80.42015 | 3009 ft | 180 kts | 99° |
| 2026-04-25 01:19 | 43.12944 | -80.40335 | 3071 ft | 176 kts | 102° |
| 2026-04-25 01:19 | 43.12721 | -80.38686 | 3080 ft | 177 kts | 107° |
| 2026-04-25 01:20 | 43.12331 | -80.37104 | 3026 ft | 178 kts | 111° |
| 2026-04-25 01:20 | 43.12112 | -80.35442 | 3087 ft | 179 kts | 91° |
| 2026-04-25 01:20 | 43.12116 | -80.33738 | 3090 ft | 179 kts | 97° |
| 2026-04-25 01:20 | 43.12023 | -80.32045 | 3082 ft | 179 kts | 93° |
| 2026-04-25 01:21 | 43.11979 | -80.30343 | 3119 ft | 179 kts | 95° |
| 2026-04-25 01:21 | 43.11951 | -80.28634 | 3093 ft | 180 kts | 92° |
| 2026-04-25 01:21 | 43.12182 | -80.26943 | 3046 ft | 184 kts | 70° |
| 2026-04-25 01:21 | 43.12720 | -80.25432 | 3123 ft | 179 kts | 62° |
| 2026-04-25 01:22 | 43.13320 | -80.23938 | 3098 ft | 184 kts | 64° |
| 2026-04-25 01:22 | 43.13835 | -80.22352 | 3158 ft | 181 kts | 70° |
| 2026-04-25 01:22 | 43.14271 | -80.20733 | 3168 ft | 183 kts | 71° |
| 2026-04-25 01:22 | 43.14756 | -80.19122 | 3201 ft | 183 kts | 65° |
| 2026-04-25 01:23 | 43.15410 | -80.17583 | 3109 ft | 187 kts | 63° |
| 2026-04-25 01:23 | 43.15790 | -80.15975 | 3342 ft | 173 kts | 76° |
| 2026-04-25 01:23 | 43.16279 | -80.14430 | 3223 ft | 186 kts | 57° |
| 2026-04-25 01:23 | 43.17172 | -80.13098 | 3121 ft | 190 kts | 49° |
| 2026-04-25 01:24 | 43.18104 | -80.11789 | 2961 ft | 195 kts | 47° |
| 2026-04-25 01:24 | 43.18983 | -80.10494 | 3283 ft | 175 kts | 58° |
| 2026-04-25 01:24 | 43.19617 | -80.09054 | 3254 ft | 182 kts | 63° |
| 2026-04-25 01:24 | 43.20245 | -80.07517 | 3255 ft | 182 kts | 62° |
| 2026-04-25 01:25 | 43.20858 | -80.06028 | 3341 ft | 180 kts | 63° |
| 2026-04-25 01:25 | 43.21454 | -80.04491 | 3330 ft | 183 kts | 67° |
| 2026-04-25 01:25 | 43.22229 | -80.03097 | 3313 ft | 186 kts | 48° |
| 2026-04-25 01:25 | 43.23172 | -80.01957 | 3532 ft | 172 kts | 36° |
| 2026-04-25 01:26 | 43.24052 | -80.01089 | 3753 ft | 169 kts | 38° |
| 2026-04-25 01:26 | 43.24769 | -79.99590 | 3385 ft | 186 kts | 75° |
| 2026-04-25 01:26 | 43.25117 | -79.98216 | 4390 ft | 129 kts | 63° |
| 2026-04-25 01:26 | 43.25731 | -79.97033 | 3931 ft | 183 kts | 48° |
| 2026-04-25 01:27 | 43.26602 | -79.95696 | 3797 ft | 193 kts | 49° |
| 2026-04-25 01:27 | 43.27470 | -79.94285 | 3277 ft | 205 kts | 53° |
| 2026-04-25 01:27 | 43.28392 | -79.92720 | 2493 ft | 201 kts | 56° |
| 2026-04-25 01:28 | 43.29827 | -79.89820 | 2163 ft | 168 kts | 63° |
| 2026-04-25 01:28 | 43.30384 | -79.88394 | 1891 ft | 173 kts | 66° |
| 2026-04-25 01:28 | 43.31053 | -79.86988 | 1362 ft | 185 kts | 50° |
| 2026-04-25 01:28 | 43.31944 | -79.85729 | 1111 ft | 180 kts | 43° |
| 2026-04-25 01:29 | 43.32861 | -79.84591 | 934 ft | 173 kts | 45° |
| 2026-04-25 01:29 | 43.33730 | -79.83465 | 844 ft | 162 kts | 38° |
| 2026-04-25 01:29 | 43.34736 | -79.82944 | 797 ft | 164 kts | 4° |
| 2026-04-25 01:29 | 43.35789 | -79.83374 | 1025 ft | 156 kts | 341° |
| 2026-04-25 01:30 | 43.36767 | -79.84109 | 1010 ft | 162 kts | 334° |
| 2026-04-25 01:30 | 43.37674 | -79.84959 | 1286 ft | 152 kts | 316° |
| 2026-04-25 01:30 | 43.38386 | -79.85967 | 1611 ft | 148 kts | 345° |
| 2026-04-25 01:30 | 43.39421 | -79.86107 | 1625 ft | 155 kts | 12° |
| 2026-04-25 01:31 | 43.40554 | -79.86029 | 1482 ft | 171 kts | 8° |
| 2026-04-25 01:31 | 43.41730 | -79.85797 | 1417 ft | 169 kts | 20° |
| 2026-04-25 01:31 | 43.42492 | -79.85471 | 1268 ft | 176 kts | 23° |
| 2026-04-25 01:31 | 43.44043 | -79.84665 | 953 ft | 178 kts | 25° |
| 2026-04-25 01:32 | 43.45011 | -79.83853 | 1329 ft | 155 kts | 47° |
| 2026-04-25 01:32 | 43.45602 | -79.82634 | 1396 ft | 153 kts | 63° |
| 2026-04-25 01:32 | 43.46073 | -79.81387 | 1736 ft | 139 kts | 69° |
| 2026-04-25 01:32 | 43.46422 | -79.80158 | 1885 ft | 139 kts | 74° |
| 2026-04-25 01:33 | 43.46592 | -79.79308 | 1918 ft | 142 kts | 82° |
| 2026-04-25 01:33 | 43.46587 | -79.77944 | 2060 ft | 136 kts | 102° |
| 2026-04-25 01:33 | 43.46352 | -79.76941 | 2129 ft | 138 kts | 105° |
| 2026-04-25 01:33 | 43.46071 | -79.75623 | 2018 ft | 149 kts | 101° |
| 2026-04-25 01:34 | 43.45932 | -79.74248 | 2116 ft | 143 kts | 93° |
| 2026-04-25 01:34 | 43.45873 | -79.72862 | 2090 ft | 147 kts | 96° |
| 2026-04-25 01:34 | 43.45751 | -79.71465 | 2169 ft | 144 kts | 96° |
| 2026-04-25 01:34 | 43.45745 | -79.70091 | 2223 ft | 146 kts | 85° |
| 2026-04-25 01:35 | 43.45934 | -79.68695 | 2210 ft | 149 kts | 80° |
| 2026-04-25 01:35 | 43.46278 | -79.67354 | 2319 ft | 151 kts | 64° |
| 2026-04-25 01:35 | 43.46998 | -79.66230 | 2223 ft | 161 kts | 50° |
| 2026-04-25 01:35 | 43.47766 | -79.65044 | 1887 ft | 170 kts | 58° |
| 2026-04-25 01:36 | 43.48422 | -79.63656 | 1408 ft | 177 kts | 61° |
| 2026-04-25 01:36 | 43.49127 | -79.62174 | 982 ft | 184 kts | 54° |
| 2026-04-25 01:36 | 43.50014 | -79.61073 | 1134 ft | 172 kts | 31° |
| 2026-04-25 01:36 | 43.51134 | -79.60411 | 974 ft | 173 kts | 25° |
| 2026-04-25 01:37 | 43.52235 | -79.59829 | 975 ft | 168 kts | 23° |
| 2026-04-25 01:37 | 43.53310 | -79.59203 | 918 ft | 167 kts | 28° |
| 2026-04-25 01:37 | 43.54382 | -79.58514 | 761 ft | 171 kts | 26° |
| 2026-04-25 01:37 | 43.55400 | -79.57677 | 665 ft | 168 kts | 42° |
| 2026-04-25 01:38 | 43.56148 | -79.56454 | 539 ft | 168 kts | 52° |
| 2026-04-25 01:38 | 43.56909 | -79.55261 | 626 ft | 161 kts | 42° |
| 2026-04-25 01:38 | 43.57895 | -79.54491 | 582 ft | 167 kts | 28° |
| 2026-04-25 01:38 | 43.58923 | -79.53732 | 601 ft | 159 kts | 33° |
| 2026-04-25 01:39 | 43.59764 | -79.52884 | 879 ft | 148 kts | 47° |
| 2026-04-25 01:39 | 43.60379 | -79.51781 | 1024 ft | 148 kts | 59° |
| 2026-04-25 01:39 | 43.60837 | -79.50496 | 1110 ft | 151 kts | 68° |
| 2026-04-25 01:39 | 43.61243 | -79.49231 | 1445 ft | 142 kts | 69° |
| 2026-04-25 01:40 | 43.61605 | -79.47939 | 1455 ft | 147 kts | 77° |
| 2026-04-25 01:40 | 43.61808 | -79.46592 | 1401 ft | 138 kts | 83° |
| 2026-04-25 01:40 | 43.61977 | -79.45266 | 970 ft | 145 kts | 80° |
| 2026-04-25 01:40 | 43.62067 | -79.43859 | 650 ft | 144 kts | 84° |
| 2026-04-25 01:41 | 43.62205 | -79.42623 | 617 ft | 107 kts | 74° |
| 2026-04-25 01:41 | 43.62370 | -79.41756 | 531 ft | 87 kts | 70° |
| 2026-04-25 01:41 | 43.62605 | -79.40953 | 416 ft | 94 kts | 69° |
| 2026-04-25 01:41 | 43.62812 | -79.40066 | 252 ft | 86 kts | 67° |
| 2026-04-25 01:42 | 43.62926 | -79.39671 | 256 ft | 14 kts | 54° |
| 2026-04-25 01:42 | 43.62986 | -79.39663 | 256 ft | 9 kts | 336° |
| 2026-04-25 01:42 | 43.63073 | -79.39690 | 254 ft | 13 kts | 344° |
| 2026-04-25 01:42 | 43.63131 | -79.39724 | 254 ft | 3 kts | 321° |
| 2026-04-25 01:43 | 43.63133 | -79.39725 | 254 ft | 0 kts | 324° |